Time;durP1;ratioP1;P1;durP2;ratioP2;P2;SDS_P1;SDS_P2;PMS_P1;PMS_P2;Temp;Humidity;BMP_temperature;BMP_pressure;BME280_temperature;BME280_humidity;BME280_pressure;Samples;Min_cycle;Max_cycle;Signal;HPM_P1;HPM_P2
2021/07/31 00:00:45;;;;;;;6.03;2.90;;;;;;;;;;5034849;28;20188;-85
2021/07/31 00:03:11;;;;;;;4.67;2.20;;;;;;;;;;5038737;28;20448;-84
2021/07/31 00:05:37;;;;;;;2.40;1.70;;;;;;;;;;5046040;28;20468;-85
2021/07/31 00:08:03;;;;;;;3.33;1.60;;;;;;;;;;5042471;28;20940;-83
2021/07/31 00:10:29;;;;;;;2.97;1.42;;;;;;;;;;5026484;28;20932;-83
2021/07/31 00:12:55;;;;;;;2.38;1.80;;;;;;;;;;5044669;28;20176;-84
2021/07/31 00:15:21;;;;;;;4.20;1.63;;;;;;;;;;5040466;28;20188;-84
2021/07/31 00:17:47;;;;;;;6.43;2.28;;;;;;;;;;5042302;28;20472;-84
2021/07/31 00:20:13;;;;;;;4.03;1.40;;;;;;;;;;5044802;28;20268;-84
2021/07/31 00:22:39;;;;;;;4.70;2.05;;;;;;;;;;5044587;28;20462;-84
2021/07/31 00:25:05;;;;;;;1.88;1.30;;;;;;;;;;5044416;28;20185;-84
2021/07/31 00:27:31;;;;;;;5.00;2.03;;;;;;;;;;5033078;28;20246;-84
2021/07/31 00:29:57;;;;;;;2.50;1.90;;;;;;;;;;5034479;28;20198;-83
2021/07/31 00:32:23;;;;;;;3.77;2.03;;;;;;;;;;5031773;28;20192;-83
2021/07/31 00:34:49;;;;;;;5.47;1.80;;;;;;;;;;5042964;28;20930;-83
2021/07/31 00:37:15;;;;;;;3.00;1.80;;;;;;;;;;5026571;28;20426;-84
2021/07/31 00:39:41;;;;;;;6.00;1.67;;;;;;;;;;5042051;28;20447;-84
2021/07/31 00:42:07;;;;;;;2.83;2.10;;;;;;;;;;5039754;28;20448;-84
2021/07/31 00:44:34;;;;;;;5.40;1.88;;;;;;;;;;5040170;28;20951;-84
2021/07/31 00:47:00;;;;;;;3.47;1.88;;;;;;;;;;5044647;28;20206;-83
2021/07/31 00:49:26;;;;;;;5.03;1.60;;;;;;;;;;5030236;28;20166;-83
2021/07/31 00:51:52;;;;;;;3.70;2.08;;;;;;;;;;5037002;28;20618;-84
2021/07/31 00:54:19;;;;;;;5.22;2.00;;;;;;;;;;5045848;28;20213;-83
2021/07/31 00:56:45;;;;;;;2.45;1.40;;;;;;;;;;5046090;28;20182;-84
2021/07/31 00:59:11;;;;;;;5.03;1.70;;;;;;;;;;5044732;28;20193;-84
2021/07/31 01:01:37;;;;;;;3.20;1.70;;;;;;;;;;5044867;28;20184;-83
2021/07/31 01:04:03;;;;;;;2.42;1.83;;;;;;;;;;5035263;28;20421;-84
2021/07/31 01:06:29;;;;;;;1.42;1.33;;;;;;;;;;5037332;28;20264;-84
2021/07/31 01:08:55;;;;;;;5.00;2.00;;;;;;;;;;5037207;28;20183;-84
2021/07/31 01:11:21;;;;;;;3.85;1.55;;;;;;;;;;5038268;28;20486;-82
2021/07/31 01:13:48;;;;;;;3.65;2.05;;;;;;;;;;5047686;28;20671;-83
2021/07/31 01:16:14;;;;;;;3.25;1.85;;;;;;;;;;5058063;28;20173;-84
2021/07/31 01:18:41;;;;;;;5.20;2.10;;;;;;;;;;5034554;28;20288;-85
2021/07/31 01:21:07;;;;;;;4.43;2.00;;;;;;;;;;5043518;28;20449;-84
2021/07/31 01:23:33;;;;;;;4.38;1.75;;;;;;;;;;5046806;28;20213;-83
2021/07/31 01:25:59;;;;;;;6.20;1.98;;;;;;;;;;5048764;28;20204;-83
2021/07/31 01:28:26;;;;;;;4.18;1.98;;;;;;;;;;5044992;28;20174;-82
2021/07/31 01:30:52;;;;;;;5.18;2.05;;;;;;;;;;5035041;28;20221;-83
2021/07/31 01:33:18;;;;;;;2.95;2.00;;;;;;;;;;5043090;28;20243;-85
2021/07/31 01:35:44;;;;;;;5.85;2.05;;;;;;;;;;5046682;28;20190;-83
2021/07/31 01:38:10;;;;;;;2.95;2.05;;;;;;;;;;5047841;28;20656;-84
2021/07/31 01:40:36;;;;;;;2.85;1.85;;;;;;;;;;5030513;28;20262;-82
2021/07/31 01:43:02;;;;;;;10.50;2.25;;;;;;;;;;5031182;28;20185;-84
2021/07/31 01:45:29;;;;;;;3.55;1.83;;;;;;;;;;5034128;28;20217;-84
2021/07/31 01:47:55;;;;;;;5.10;2.13;;;;;;;;;;5035097;28;20183;-84
2021/07/31 01:50:21;;;;;;;3.60;1.97;;;;;;;;;;5035762;28;20181;-82
2021/07/31 01:52:47;;;;;;;2.67;1.87;;;;;;;;;;5028852;28;20984;-84
2021/07/31 01:55:13;;;;;;;2.53;1.40;;;;;;;;;;5031361;28;20414;-83
2021/07/31 01:57:39;;;;;;;3.45;2.22;;;;;;;;;;5045444;28;20189;-84
2021/07/31 02:00:06;;;;;;;4.82;2.08;;;;;;;;;;5048046;28;20760;-84
2021/07/31 02:02:32;;;;;;;3.40;2.00;;;;;;;;;;5046250;28;20196;-84
2021/07/31 02:04:58;;;;;;;2.10;1.90;;;;;;;;;;5033288;28;20240;-84
2021/07/31 02:07:24;;;;;;;4.60;1.73;;;;;;;;;;5043609;28;20605;-84
2021/07/31 02:09:50;;;;;;;3.00;1.30;;;;;;;;;;5034608;28;20209;-83
2021/07/31 02:12:16;;;;;;;2.33;1.60;;;;;;;;;;5033686;28;20864;-83
2021/07/31 02:14:42;;;;;;;3.60;1.80;;;;;;;;;;5036217;28;20450;-84
2021/07/31 02:17:08;;;;;;;2.85;2.05;;;;;;;;;;5046391;28;20475;-84
2021/07/31 02:19:34;;;;;;;4.22;2.30;;;;;;;;;;5029524;28;20196;-82
2021/07/31 02:22:00;;;;;;;2.83;1.77;;;;;;;;;;5030533;28;20269;-84
2021/07/31 02:24:26;;;;;;;4.80;2.38;;;;;;;;;;5033764;28;20774;-83
2021/07/31 02:26:52;;;;;;;2.03;1.75;;;;;;;;;;5036046;28;20717;-84
2021/07/31 02:29:18;;;;;;;4.30;1.90;;;;;;;;;;5033815;28;20185;-84
2021/07/31 02:31:44;;;;;;;4.05;1.83;;;;;;;;;;5044769;28;20181;-83
2021/07/31 02:34:10;;;;;;;4.28;2.20;;;;;;;;;;5030583;28;20161;-84
2021/07/31 02:36:36;;;;;;;2.65;1.80;;;;;;;;;;5034206;28;20194;-83
2021/07/31 02:39:02;;;;;;;3.87;1.77;;;;;;;;;;5041489;28;20549;-82
2021/07/31 02:41:28;;;;;;;1.63;1.52;;;;;;;;;;5046781;28;20447;-83
2021/07/31 02:43:54;;;;;;;4.85;1.80;;;;;;;;;;5045268;28;20201;-84
2021/07/31 02:46:20;;;;;;;2.58;1.70;;;;;;;;;;5045307;28;20200;-84
2021/07/31 02:48:46;;;;;;;4.37;1.60;;;;;;;;;;5048564;28;20189;-84
2021/07/31 02:51:13;;;;;;;3.90;1.90;;;;;;;;;;5040681;28;20436;-83
2021/07/31 02:53:40;;;;;;;2.47;1.95;;;;;;;;;;5043871;28;20432;-82
2021/07/31 02:56:07;;;;;;;6.05;1.75;;;;;;;;;;5046220;28;20192;-83
2021/07/31 02:58:33;;;;;;;2.63;1.52;;;;;;;;;;5044462;28;20237;-83
2021/07/31 03:01:03;;;;;;;3.08;2.03;;;;;;;;;;5058376;28;20190;-84
2021/07/31 03:03:29;;;;;;;2.17;1.88;;;;;;;;;;5039901;28;20717;-83
2021/07/31 03:05:56;;;;;;;2.17;1.42;;;;;;;;;;5044910;28;20209;-84
2021/07/31 03:08:23;;;;;;;1.95;1.70;;;;;;;;;;5046035;28;20185;-82
2021/07/31 03:10:53;;;;;;;6.35;2.30;;;;;;;;;;5031047;28;20553;-84
2021/07/31 03:13:19;;;;;;;2.20;1.55;;;;;;;;;;5036089;28;20173;-83
2021/07/31 03:15:45;;;;;;;1.95;1.40;;;;;;;;;;5034043;28;20192;-83
2021/07/31 03:18:11;;;;;;;3.45;1.80;;;;;;;;;;5031855;28;20769;-83
2021/07/31 03:20:37;;;;;;;2.40;1.60;;;;;;;;;;5036348;28;20197;-84
2021/07/31 03:23:03;;;;;;;2.70;1.77;;;;;;;;;;5045391;28;20435;-84
2021/07/31 03:25:29;;;;;;;3.33;1.67;;;;;;;;;;5027501;28;20464;-84
2021/07/31 03:27:55;;;;;;;1.57;1.47;;;;;;;;;;5039178;28;20417;-82
2021/07/31 03:30:21;;;;;;;2.80;1.87;;;;;;;;;;5045624;28;20535;-83
2021/07/31 03:32:47;;;;;;;2.75;1.80;;;;;;;;;;5043819;28;20539;-82
2021/07/31 03:35:13;;;;;;;2.45;2.00;;;;;;;;;;5043205;28;20180;-85
2021/07/31 03:37:39;;;;;;;3.77;1.93;;;;;;;;;;5030110;28;20236;-84
2021/07/31 03:40:05;;;;;;;6.07;1.83;;;;;;;;;;5044033;28;20869;-84
2021/07/31 03:42:31;;;;;;;6.38;2.30;;;;;;;;;;5035149;28;20444;-84
2021/07/31 03:44:57;;;;;;;3.63;1.50;;;;;;;;;;5039717;28;20194;-84
2021/07/31 03:47:23;;;;;;;4.30;1.47;;;;;;;;;;5045616;28;20471;-83
2021/07/31 03:49:49;;;;;;;3.33;1.90;;;;;;;;;;5042843;28;20428;-83
2021/07/31 03:52:15;;;;;;;2.03;1.70;;;;;;;;;;5044085;28;20428;-83
2021/07/31 03:54:41;;;;;;;5.47;1.90;;;;;;;;;;5043750;28;20451;-84
2021/07/31 03:57:07;;;;;;;2.60;1.55;;;;;;;;;;5043111;28;20182;-83
2021/07/31 03:59:33;;;;;;;2.63;1.67;;;;;;;;;;5041363;28;20258;-83
2021/07/31 04:02:02;;;;;;;2.15;1.52;;;;;;;;;;5030435;28;20505;-83
2021/07/31 04:04:28;;;;;;;6.93;2.30;;;;;;;;;;5027000;28;20257;-82
2021/07/31 04:06:56;;;;;;;3.78;2.17;;;;;;;;;;5044492;28;20237;-84
2021/07/31 04:09:22;;;;;;;4.13;1.92;;;;;;;;;;5043878;28;20249;-83
2021/07/31 04:11:48;;;;;;;2.47;1.80;;;;;;;;;;5039123;28;20188;-83
2021/07/31 04:14:14;;;;;;;3.73;1.70;;;;;;;;;;5031370;28;20195;-83
2021/07/31 04:16:40;;;;;;;4.13;1.97;;;;;;;;;;5026008;28;20439;-83
2021/07/31 04:19:06;;;;;;;3.83;2.20;;;;;;;;;;5037404;28;20991;-83
2021/07/31 04:21:32;;;;;;;4.60;2.50;;;;;;;;;;5042915;28;20228;-84
2021/07/31 04:23:58;;;;;;;4.10;2.17;;;;;;;;;;5045555;28;20450;-84
2021/07/31 04:26:24;;;;;;;8.50;2.10;;;;;;;;;;5045795;28;20465;-83
2021/07/31 04:28:50;;;;;;;3.80;1.93;;;;;;;;;;5029914;28;20443;-83
2021/07/31 04:31:17;;;;;;;2.60;1.90;;;;;;;;;;5043276;28;20935;-84
2021/07/31 04:33:43;;;;;;;5.03;2.28;;;;;;;;;;5032630;28;20189;-84
2021/07/31 04:36:09;;;;;;;8.20;2.00;;;;;;;;;;5038120;28;20181;-83
2021/07/31 04:38:36;;;;;;;2.10;1.60;;;;;;;;;;5042610;28;20181;-84
2021/07/31 04:41:03;;;;;;;2.08;1.88;;;;;;;;;;5044329;28;20220;-83
2021/07/31 04:43:29;;;;;;;5.25;2.40;;;;;;;;;;5027114;28;20188;-83
2021/07/31 04:45:55;;;;;;;3.95;2.47;;;;;;;;;;5045099;28;20239;-84
2021/07/31 04:48:21;;;;;;;3.43;1.90;;;;;;;;;;5044060;28;20185;-84
2021/07/31 04:50:54;;;;;;;3.20;1.73;;;;;;;;;;5043868;28;20462;-83
2021/07/31 04:53:20;;;;;;;4.38;2.30;;;;;;;;;;5044567;28;20205;-83
2021/07/31 04:55:46;;;;;;;2.57;1.63;;;;;;;;;;5043375;28;20188;-83
2021/07/31 04:58:12;;;;;;;3.87;2.20;;;;;;;;;;5037843;28;20441;-84
2021/07/31 05:00:38;;;;;;;10.60;2.37;;;;;;;;;;5041515;28;20466;-84
2021/07/31 05:03:05;;;;;;;4.00;2.00;;;;;;;;;;5037577;28;20455;-84
2021/07/31 05:05:32;;;;;;;5.78;2.40;;;;;;;;;;5031284;28;20463;-84
2021/07/31 05:07:58;;;;;;;6.57;2.60;;;;;;;;;;5026440;28;20181;-84
2021/07/31 05:10:24;;;;;;;6.50;2.30;;;;;;;;;;5026362;28;20240;-83
2021/07/31 05:12:50;;;;;;;4.20;2.20;;;;;;;;;;5043779;28;20186;-82
2021/07/31 05:15:17;;;;;;;2.63;2.00;;;;;;;;;;5036900;28;20435;-83
2021/07/31 05:17:43;;;;;;;5.30;2.80;;;;;;;;;;5033985;28;20230;-84
2021/07/31 05:20:09;;;;;;;5.80;2.10;;;;;;;;;;5043452;28;20213;-84
2021/07/31 05:22:35;;;;;;;2.33;2.00;;;;;;;;;;5043379;28;20624;-84
2021/07/31 05:25:03;;;;;;;2.20;1.73;;;;;;;;;;5043947;28;20178;-83
2021/07/31 05:27:29;;;;;;;4.00;2.00;;;;;;;;;;5043885;28;20533;-83
2021/07/31 05:29:55;;;;;;;2.87;2.00;;;;;;;;;;5047012;28;20216;-84
2021/07/31 05:32:21;;;;;;;8.47;2.50;;;;;;;;;;5045843;28;20476;-84
2021/07/31 05:34:47;;;;;;;4.00;2.42;;;;;;;;;;5032137;28;20447;-84
2021/07/31 05:37:13;;;;;;;3.58;2.65;;;;;;;;;;5045698;28;20172;-84
2021/07/31 05:39:39;;;;;;;3.67;2.00;;;;;;;;;;5034801;28;20244;-85
2021/07/31 05:42:06;;;;;;;4.75;2.35;;;;;;;;;;5035100;28;20450;-83
2021/07/31 05:44:33;;;;;;;6.00;2.50;;;;;;;;;;5035124;28;20182;-83
2021/07/31 05:46:59;;;;;;;6.05;2.65;;;;;;;;;;5047026;28;20282;-83
2021/07/31 05:49:25;;;;;;;8.88;2.70;;;;;;;;;;5045075;28;20171;-84
2021/07/31 05:51:51;;;;;;;4.65;2.47;;;;;;;;;;5047341;28;20166;-84
2021/07/31 05:54:17;;;;;;;7.30;2.43;;;;;;;;;;5039599;28;20187;-84
2021/07/31 05:56:43;;;;;;;3.60;2.07;;;;;;;;;;5039615;28;20439;-80
2021/07/31 05:59:09;;;;;;;6.70;2.55;;;;;;;;;;5042123;28;20449;-83
2021/07/31 06:01:36;;;;;;;4.90;2.40;;;;;;;;;;5044038;28;20181;-84
2021/07/31 06:04:02;;;;;;;4.07;2.15;;;;;;;;;;5031191;28;20412;-85
2021/07/31 06:06:28;;;;;;;5.78;2.38;;;;;;;;;;5043636;28;20239;-84
2021/07/31 06:08:54;;;;;;;6.32;2.33;;;;;;;;;;5046514;28;20205;-84
2021/07/31 06:11:20;;;;;;;3.93;2.17;;;;;;;;;;5047525;28;20181;-84
2021/07/31 06:13:46;;;;;;;11.57;3.53;;;;;;;;;;5046615;28;20456;-84
2021/07/31 06:16:12;;;;;;;6.40;2.77;;;;;;;;;;5045104;28;20204;-84
2021/07/31 06:18:39;;;;;;;3.65;2.97;;;;;;;;;;5047043;28;20480;-84
2021/07/31 06:21:06;;;;;;;4.20;2.15;;;;;;;;;;5046965;28;20745;-84
2021/07/31 06:23:32;;;;;;;6.43;2.60;;;;;;;;;;5044756;28;20209;-84
2021/07/31 06:26:02;;;;;;;2.92;2.08;;;;;;;;;;5042670;28;20202;-83
2021/07/31 06:28:28;;;;;;;6.25;2.97;;;;;;;;;;5045676;28;20549;-84
2021/07/31 06:30:54;;;;;;;5.18;3.20;;;;;;;;;;5044619;28;20185;-84
2021/07/31 06:33:20;;;;;;;6.80;2.78;;;;;;;;;;5044125;28;20240;-84
2021/07/31 06:35:46;;;;;;;6.80;2.50;;;;;;;;;;5046394;28;20211;-84
2021/07/31 06:38:12;;;;;;;4.60;2.30;;;;;;;;;;5044695;28;20792;-83
2021/07/31 06:40:38;;;;;;;5.20;2.25;;;;;;;;;;5028181;28;20427;-84
2021/07/31 06:43:04;;;;;;;5.15;2.80;;;;;;;;;;5045146;28;20209;-84
2021/07/31 06:45:30;;;;;;;3.65;2.10;;;;;;;;;;5043448;28;20645;-83
2021/07/31 06:47:56;;;;;;;4.90;2.05;;;;;;;;;;5045413;28;20194;-83
2021/07/31 06:50:22;;;;;;;4.35;2.80;;;;;;;;;;5043125;28;20190;-84
2021/07/31 06:52:48;;;;;;;7.90;2.73;;;;;;;;;;5047576;28;20194;-84
2021/07/31 06:55:14;;;;;;;7.28;2.45;;;;;;;;;;5043856;28;20413;-85
2021/07/31 06:57:40;;;;;;;7.57;2.93;;;;;;;;;;5034400;28;20182;-83
2021/07/31 07:00:07;;;;;;;3.50;2.80;;;;;;;;;;5040508;28;20447;-83
2021/07/31 07:02:33;;;;;;;5.22;3.20;;;;;;;;;;5044802;28;20185;-83
2021/07/31 07:04:59;;;;;;;2.80;2.17;;;;;;;;;;5027859;28;20188;-84
2021/07/31 07:07:25;;;;;;;6.27;3.10;;;;;;;;;;5028721;28;20465;-83
2021/07/31 07:09:51;;;;;;;7.80;2.67;;;;;;;;;;5032565;28;20405;-83
2021/07/31 07:12:17;;;;;;;6.30;2.63;;;;;;;;;;5039587;28;20448;-84
2021/07/31 07:14:43;;;;;;;6.97;2.30;;;;;;;;;;5041912;28;20429;-84
2021/07/31 07:17:09;;;;;;;7.15;2.85;;;;;;;;;;5030099;28;20589;-84
2021/07/31 07:19:35;;;;;;;3.50;2.20;;;;;;;;;;5027160;28;20182;-83
2021/07/31 07:22:01;;;;;;;4.70;3.25;;;;;;;;;;5044863;28;20189;-83
2021/07/31 07:24:27;;;;;;;5.80;2.78;;;;;;;;;;5036503;28;20210;-80
2021/07/31 07:26:53;;;;;;;9.13;3.73;;;;;;;;;;5037630;28;20217;-83
2021/07/31 07:29:19;;;;;;;5.17;3.30;;;;;;;;;;5045307;28;20449;-82
2021/07/31 07:31:45;;;;;;;3.47;3.10;;;;;;;;;;5045874;28;20926;-83
2021/07/31 07:34:11;;;;;;;8.43;3.07;;;;;;;;;;5043271;28;20425;-83
2021/07/31 07:36:37;;;;;;;3.50;3.20;;;;;;;;;;5033361;28;20437;-84
2021/07/31 07:39:03;;;;;;;4.37;3.10;;;;;;;;;;5040392;28;20466;-83
2021/07/31 07:41:29;;;;;;;3.50;2.63;;;;;;;;;;5042941;28;20955;-83
2021/07/31 07:43:55;;;;;;;2.88;2.35;;;;;;;;;;5031476;28;20207;-82
2021/07/31 07:46:21;;;;;;;5.10;2.83;;;;;;;;;;5042081;28;20269;-81
2021/07/31 07:48:47;;;;;;;6.17;3.60;;;;;;;;;;5040857;28;20433;-82
2021/07/31 07:51:13;;;;;;;4.60;3.15;;;;;;;;;;5035509;28;20520;-83
2021/07/31 07:53:39;;;;;;;5.43;2.80;;;;;;;;;;5036220;28;20212;-84
2021/07/31 07:56:05;;;;;;;3.70;2.80;;;;;;;;;;5041436;28;20202;-84
2021/07/31 07:58:31;;;;;;;6.97;3.28;;;;;;;;;;5026335;28;20193;-83
2021/07/31 08:00:57;;;;;;;4.85;3.42;;;;;;;;;;5031789;28;20206;-83
2021/07/31 08:03:23;;;;;;;6.38;3.03;;;;;;;;;;5042289;28;20272;-82
2021/07/31 08:05:49;;;;;;;4.27;2.57;;;;;;;;;;5043612;28;20233;-83
2021/07/31 08:08:15;;;;;;;4.70;3.03;;;;;;;;;;5045665;28;20439;-83
2021/07/31 08:10:41;;;;;;;3.05;2.80;;;;;;;;;;5043487;28;20434;-83
2021/07/31 08:13:07;;;;;;;4.43;2.93;;;;;;;;;;5027347;28;20175;-81
2021/07/31 08:15:34;;;;;;;4.20;2.70;;;;;;;;;;5043436;28;20482;-84
2021/07/31 08:18:00;;;;;;;7.60;2.60;;;;;;;;;;5043931;28;20519;-82
2021/07/31 08:20:26;;;;;;;2.93;2.53;;;;;;;;;;5042713;28;20642;-83
2021/07/31 08:22:52;;;;;;;2.97;2.50;;;;;;;;;;5045249;28;20444;-84
2021/07/31 08:25:18;;;;;;;6.68;3.63;;;;;;;;;;5043484;28;20169;-84
2021/07/31 08:27:44;;;;;;;2.05;1.90;;;;;;;;;;5035016;28;20952;-83
2021/07/31 08:30:10;;;;;;;2.80;2.53;;;;;;;;;;5037411;28;20182;-83
2021/07/31 08:32:36;;;;;;;4.50;2.50;;;;;;;;;;5044647;28;20444;-83
2021/07/31 08:35:02;;;;;;;3.90;2.30;;;;;;;;;;5039508;28;20643;-83
2021/07/31 08:37:29;;;;;;;4.35;2.20;;;;;;;;;;5040866;28;20456;-83
2021/07/31 08:39:54;;;;;;;3.50;2.30;;;;;;;;;;5039228;28;20181;-83
2021/07/31 08:42:20;;;;;;;2.30;2.13;;;;;;;;;;5035801;28;20202;-84
2021/07/31 08:44:48;;;;;;;3.87;2.40;;;;;;;;;;5036677;28;20436;-83
2021/07/31 08:47:15;;;;;;;3.25;2.88;;;;;;;;;;5043524;28;20465;-83
2021/07/31 08:49:45;;;;;;;6.40;2.10;;;;;;;;;;5042764;28;20202;-82
2021/07/31 08:52:13;;;;;;;2.20;2.03;;;;;;;;;;5043670;28;20170;-82
2021/07/31 08:54:40;;;;;;;9.23;2.60;;;;;;;;;;5041670;28;20678;-82
2021/07/31 08:57:06;;;;;;;3.95;2.65;;;;;;;;;;5043573;28;20543;-83
2021/07/31 08:59:32;;;;;;;3.85;2.40;;;;;;;;;;5042382;28;20225;-84
2021/07/31 09:01:59;;;;;;;2.70;2.50;;;;;;;;;;5040448;28;20559;-84
2021/07/31 09:04:25;;;;;;;4.93;3.25;;;;;;;;;;5029522;28;20194;-83
2021/07/31 09:06:51;;;;;;;6.47;2.45;;;;;;;;;;5048462;28;20203;-83
2021/07/31 09:09:27;;;;;;;4.95;3.08;;;;;;;;;;5039822;28;20184;-82
2021/07/31 09:12:00;;;;;;;3.38;3.08;;;;;;;;;;5036706;28;20196;-83
2021/07/31 09:14:27;;;;;;;4.20;2.33;;;;;;;;;;5035068;28;20188;-83
2021/07/31 09:16:53;;;;;;;2.95;2.05;;;;;;;;;;5048613;28;20254;-83
2021/07/31 09:19:19;;;;;;;4.47;2.05;;;;;;;;;;5046566;28;20186;-82
2021/07/31 09:21:46;;;;;;;3.80;1.80;;;;;;;;;;5057748;28;20197;-82
2021/07/31 09:24:16;;;;;;;3.42;2.20;;;;;;;;;;5045380;28;20199;-83
2021/07/31 09:26:49;;;;;;;2.60;2.30;;;;;;;;;;5047075;28;20247;-82
2021/07/31 09:29:16;;;;;;;2.30;1.95;;;;;;;;;;5046422;28;20354;-83
2021/07/31 09:31:53;;;;;;;2.97;2.13;;;;;;;;;;5031053;28;20181;-84
2021/07/31 09:34:28;;;;;;;4.28;2.60;;;;;;;;;;5041159;28;20177;-83
2021/07/31 09:37:07;;;;;;;2.72;2.53;;;;;;;;;;5035208;28;20523;-83
2021/07/31 09:39:52;;;;;;;3.40;2.35;;;;;;;;;;5044851;28;20232;-83
2021/07/31 09:42:28;;;;;;;2.95;1.83;;;;;;;;;;5047928;28;20199;-83
2021/07/31 09:44:54;;;;;;;3.15;2.20;;;;;;;;;;5048081;28;20570;-83
2021/07/31 09:47:20;;;;;;;6.25;2.00;;;;;;;;;;5048022;28;20663;-83
2021/07/31 09:49:46;;;;;;;3.90;2.57;;;;;;;;;;5048170;28;20186;-83
2021/07/31 09:52:17;;;;;;;3.45;1.90;;;;;;;;;;5046018;28;20414;-82
2021/07/31 09:54:43;;;;;;;2.53;2.33;;;;;;;;;;5045508;28;20196;-83
2021/07/31 09:57:12;;;;;;;5.32;2.40;;;;;;;;;;5048136;28;20194;-84
2021/07/31 09:59:43;;;;;;;3.28;2.30;;;;;;;;;;5045178;28;20763;-84
2021/07/31 10:02:13;;;;;;;5.15;2.58;;;;;;;;;;5046578;28;20602;-84
2021/07/31 10:04:39;;;;;;;2.45;2.25;;;;;;;;;;5043434;28;20423;-83
2021/07/31 10:07:05;;;;;;;5.35;2.10;;;;;;;;;;5032736;28;20272;-84
2021/07/31 10:09:32;;;;;;;4.20;2.83;;;;;;;;;;5045855;28;20239;-85
2021/07/31 10:11:58;;;;;;;4.33;2.30;;;;;;;;;;5047432;28;20440;-83
2021/07/31 10:14:25;;;;;;;5.33;2.10;;;;;;;;;;5045779;28;20444;-82
2021/07/31 10:16:51;;;;;;;3.40;2.20;;;;;;;;;;5047484;28;20820;-82
2021/07/31 10:19:18;;;;;;;2.73;2.07;;;;;;;;;;5041891;28;20604;-82
2021/07/31 10:21:47;;;;;;;3.30;2.20;;;;;;;;;;5039941;28;20415;-83
2021/07/31 10:24:13;;;;;;;2.80;1.83;;;;;;;;;;5045704;28;20448;-83
2021/07/31 10:26:39;;;;;;;3.73;1.70;;;;;;;;;;5047288;28;20447;-85
2021/07/31 10:29:29;;;;;;;1.90;1.73;;;;;;;;;;5047563;28;20438;-84
2021/07/31 10:31:55;;;;;;;4.53;1.93;;;;;;;;;;5029321;28;20462;-81
2021/07/31 10:34:41;;;;;;;2.37;2.10;;;;;;;;;;5042933;28;20671;-84
2021/07/31 10:37:27;;;;;;;4.20;2.10;;;;;;;;;;5068455;28;20481;-81
2021/07/31 10:39:53;;;;;;;1.80;1.70;;;;;;;;;;5046678;28;20430;-83
2021/07/31 10:42:19;;;;;;;2.17;2.07;;;;;;;;;;5044535;28;20421;-81
2021/07/31 10:45:04;;;;;;;1.80;1.70;;;;;;;;;;5041233;28;20429;-82
2021/07/31 10:47:30;;;;;;;2.17;1.80;;;;;;;;;;5034892;28;20466;-82
2021/07/31 10:49:56;;;;;;;2.20;1.63;;;;;;;;;;5046771;28;20485;-84
2021/07/31 10:52:41;;;;;;;5.87;1.93;;;;;;;;;;5043449;28;20591;-84
2021/07/31 10:55:07;;;;;;;2.60;1.80;;;;;;;;;;5034603;28;20419;-83
2021/07/31 10:57:52;;;;;;;3.67;2.30;;;;;;;;;;5035304;28;20441;-83
2021/07/31 11:00:30;;;;;;;2.20;2.00;;;;;;;;;;5032920;28;20501;-83
2021/07/31 11:03:03;;;;;;;3.37;2.17;;;;;;;;;;5035695;28;20462;-85
2021/07/31 11:05:29;;;;;;;1.55;1.45;;;;;;;;;;5046545;28;20436;-83
2021/07/31 11:08:00;;;;;;;3.73;2.00;;;;;;;;;;5044015;28;20217;-83
2021/07/31 11:10:49;;;;;;;3.27;2.07;;;;;;;;;;5027425;28;20434;-84
2021/07/31 11:13:18;;;;;;;2.53;1.87;;;;;;;;;;5024024;28;20433;-84
2021/07/31 11:15:56;;;;;;;5.30;3.70;;;;;;;;;;5033643;28;20432;-84
2021/07/31 11:18:26;;;;;;;4.07;3.50;;;;;;;;;;5030656;28;20477;-82
2021/07/31 11:20:52;;;;;;;3.50;2.60;;;;;;;;;;5038005;28;20516;-83
2021/07/31 11:23:19;;;;;;;1.90;1.80;;;;;;;;;;5044945;28;20450;-82
2021/07/31 11:25:45;;;;;;;3.67;2.97;;;;;;;;;;5027577;28;20427;-84
2021/07/31 11:28:11;;;;;;;4.40;2.50;;;;;;;;;;5045143;28;20616;-83
2021/07/31 11:30:39;;;;;;;3.53;2.03;;;;;;;;;;5032959;28;20533;-82
2021/07/31 11:33:14;;;;;;;2.90;1.90;;;;;;;;;;5032330;28;20449;-82
2021/07/31 11:35:40;;;;;;;3.25;3.00;;;;;;;;;;5031914;28;20802;-83
2021/07/31 11:38:25;;;;;;;2.70;1.93;;;;;;;;;;5031283;28;20222;-82
2021/07/31 11:40:58;;;;;;;1.93;1.50;;;;;;;;;;5043537;28;20439;-84
2021/07/31 11:43:24;;;;;;;4.60;1.67;;;;;;;;;;5025791;28;20430;-83
2021/07/31 11:45:50;;;;;;;2.17;1.80;;;;;;;;;;5039112;28;20467;-83
2021/07/31 11:48:16;;;;;;;1.77;1.40;;;;;;;;;;5043750;28;20460;-83
2021/07/31 11:51:02;;;;;;;1.50;1.40;;;;;;;;;;5045919;28;20986;-83
2021/07/31 11:53:28;;;;;;;1.87;1.77;;;;;;;;;;5042776;28;20429;-83
2021/07/31 11:56:10;;;;;;;2.47;1.60;;;;;;;;;;5044472;28;20418;-84
2021/07/31 11:58:37;;;;;;;2.33;2.13;;;;;;;;;;5044615;28;20395;-83
2021/07/31 12:01:03;;;;;;;3.40;1.77;;;;;;;;;;5028528;28;20400;-82
2021/07/31 12:03:42;;;;;;;3.67;1.73;;;;;;;;;;5041102;28;20453;-84
2021/07/31 12:06:27;;;;;;;2.33;1.60;;;;;;;;;;5044282;28;20477;-83
2021/07/31 12:08:53;;;;;;;1.63;1.53;;;;;;;;;;5046255;28;20436;-84
2021/07/31 12:11:35;;;;;;;2.00;1.77;;;;;;;;;;5044070;28;20436;-85
2021/07/31 12:14:02;;;;;;;2.20;1.50;;;;;;;;;;5040066;28;20431;-84
2021/07/31 12:16:29;;;;;;;1.93;1.70;;;;;;;;;;5036273;28;20485;-82
2021/07/31 12:18:55;;;;;;;1.50;1.40;;;;;;;;;;5031653;28;20417;-84
2021/07/31 12:21:28;;;;;;;2.60;1.67;;;;;;;;;;5041287;28;20444;-83
2021/07/31 12:23:54;;;;;;;2.00;1.50;;;;;;;;;;5040849;28;20455;-83
2021/07/31 12:26:33;;;;;;;1.60;1.50;;;;;;;;;;5042909;28;20438;-84
2021/07/31 12:28:59;;;;;;;2.50;1.70;;;;;;;;;;5029106;28;20945;-83
2021/07/31 12:31:25;;;;;;;3.50;1.87;;;;;;;;;;5025573;28;20432;-84
2021/07/31 12:33:52;;;;;;;2.43;1.37;;;;;;;;;;5043552;28;20420;-85
2021/07/31 12:36:18;;;;;;;3.90;1.50;;;;;;;;;;5043817;28;20432;-83
2021/07/31 12:38:44;;;;;;;5.63;1.60;;;;;;;;;;5048390;28;20451;-84
2021/07/31 12:41:10;;;;;;;1.60;1.30;;;;;;;;;;5045787;28;20792;-84
2021/07/31 12:43:36;;;;;;;1.40;1.30;;;;;;;;;;5029764;28;20432;-84
2021/07/31 12:46:03;;;;;;;2.57;1.50;;;;;;;;;;5032042;28;20460;-84
2021/07/31 12:48:29;;;;;;;1.70;1.53;;;;;;;;;;5037149;28;20457;-84
2021/07/31 12:50:55;;;;;;;2.50;1.60;;;;;;;;;;5042274;28;20459;-84
2021/07/31 12:53:25;;;;;;;2.23;1.87;;;;;;;;;;5049196;28;20422;-84
2021/07/31 12:55:54;;;;;;;2.00;1.60;;;;;;;;;;5034413;28;20435;-83
2021/07/31 12:58:21;;;;;;;2.60;1.77;;;;;;;;;;5045529;28;20422;-83
2021/07/31 13:00:47;;;;;;;1.63;1.40;;;;;;;;;;5036219;28;20423;-83
2021/07/31 13:03:16;;;;;;;1.87;1.30;;;;;;;;;;5044281;28;20427;-82
2021/07/31 13:05:42;;;;;;;1.40;1.30;;;;;;;;;;5048891;28;20436;-82
2021/07/31 13:08:08;;;;;;;1.70;1.13;;;;;;;;;;5045429;28;20537;-83
2021/07/31 13:10:35;;;;;;;1.80;1.30;;;;;;;;;;5030116;28;20424;-82
2021/07/31 13:13:02;;;;;;;1.43;1.30;;;;;;;;;;5030881;28;20464;-83
2021/07/31 13:15:28;;;;;;;2.50;1.60;;;;;;;;;;5041912;28;20438;-84
2021/07/31 13:17:54;;;;;;;2.27;1.50;;;;;;;;;;5048540;28;20990;-84
2021/07/31 13:20:20;;;;;;;1.73;1.47;;;;;;;;;;5048655;28;20624;-84
2021/07/31 13:22:46;;;;;;;3.27;1.43;;;;;;;;;;5032587;28;20443;-82
2021/07/31 13:25:13;;;;;;;1.53;1.27;;;;;;;;;;5045896;28;20416;-83
2021/07/31 13:27:39;;;;;;;1.73;1.40;;;;;;;;;;5044910;28;20565;-84
2021/07/31 13:30:05;;;;;;;3.23;1.63;;;;;;;;;;5041622;28;20457;-83
2021/07/31 13:32:32;;;;;;;1.53;1.23;;;;;;;;;;5035647;28;20827;-84
2021/07/31 13:35:01;;;;;;;1.50;1.40;;;;;;;;;;5048277;28;20445;-80
2021/07/31 13:37:30;;;;;;;2.10;1.50;;;;;;;;;;5030912;28;20414;-84
2021/07/31 13:40:04;;;;;;;1.53;1.30;;;;;;;;;;5044520;28;20778;-83
2021/07/31 13:42:30;;;;;;;2.93;1.27;;;;;;;;;;5047229;28;20444;-84
2021/07/31 13:44:56;;;;;;;1.50;1.40;;;;;;;;;;5041756;28;20440;-83
2021/07/31 13:47:22;;;;;;;1.80;1.50;;;;;;;;;;5033688;28;20551;-83
2021/07/31 13:49:48;;;;;;;1.40;1.23;;;;;;;;;;5031948;28;20444;-84
2021/07/31 13:52:14;;;;;;;2.00;1.50;;;;;;;;;;5046470;28;20420;-85
2021/07/31 13:54:40;;;;;;;3.70;1.40;;;;;;;;;;5037233;28;20432;-85
2021/07/31 13:57:06;;;;;;;2.30;1.33;;;;;;;;;;5034967;28;20414;-83
2021/07/31 13:59:33;;;;;;;1.30;1.20;;;;;;;;;;5036676;28;20433;-84
2021/07/31 14:02:00;;;;;;;1.63;1.40;;;;;;;;;;5047972;28;20444;-83
2021/07/31 14:04:26;;;;;;;1.80;1.40;;;;;;;;;;5029413;28;20458;-83
2021/07/31 14:06:52;;;;;;;2.33;1.20;;;;;;;;;;5047408;28;20466;-82
2021/07/31 14:09:18;;;;;;;1.93;1.50;;;;;;;;;;5048369;28;20746;-83
2021/07/31 14:11:44;;;;;;;1.20;1.07;;;;;;;;;;5044383;28;20446;-84
2021/07/31 14:14:10;;;;;;;7.17;1.60;;;;;;;;;;5046751;28;20975;-83
2021/07/31 14:16:36;;;;;;;2.53;1.50;;;;;;;;;;5045354;28;20405;-84
2021/07/31 14:19:03;;;;;;;1.97;1.50;;;;;;;;;;5046001;28;20446;-82
2021/07/31 14:21:29;;;;;;;1.70;1.60;;;;;;;;;;5045647;28;20447;-84
2021/07/31 14:23:55;;;;;;;1.70;1.57;;;;;;;;;;5047265;28;20680;-83
2021/07/31 14:26:21;;;;;;;2.43;1.13;;;;;;;;;;5046450;28;20472;-83
2021/07/31 14:28:47;;;;;;;1.97;1.40;;;;;;;;;;5031613;28;20442;-83
2021/07/31 14:31:12;;;;;;;4.10;1.53;;;;;;;;;;5046151;28;20417;-84
2021/07/31 14:33:39;;;;;;;3.47;1.27;;;;;;;;;;5046937;28;20467;-82
2021/07/31 14:36:05;;;;;;;2.03;1.57;;;;;;;;;;5046000;28;20441;-84
2021/07/31 14:38:31;;;;;;;1.53;1.43;;;;;;;;;;5047681;28;20446;-85
2021/07/31 14:40:57;;;;;;;2.13;1.20;;;;;;;;;;5047094;28;20451;-84
2021/07/31 14:43:23;;;;;;;2.30;1.20;;;;;;;;;;5027280;28;20517;-84